Time;durP1;ratioP1;P1;durP2;ratioP2;P2;SDS_P1;SDS_P2;PMS_P1;PMS_P2;Temp;Humidity;BMP_temperature;BMP_pressure;BME280_temperature;BME280_humidity;BME280_pressure;Samples;Min_cycle;Max_cycle;Signal;HPM_P1;HPM_P2
2022/01/14 00:03:23;;;;;;;3.28;1.88;;;;;;;20.18;44.11;98297.50;12612881;23;20022;-52
2022/01/14 00:08:42;;;;;;;3.00;1.80;;;;;;;20.17;44.11;98299.41;12632940;23;20038;-52
2022/01/14 00:19:25;;;;;;;6.93;2.05;;;;;;;20.14;43.93;98297.28;12612336;23;20362;-52
2022/01/14 00:35:56;;;;;;;2.95;1.70;;;;;;;20.08;44.00;98284.91;12612014;23;20018;-52
2022/01/14 00:41:15;;;;;;;3.75;1.83;;;;;;;20.07;44.06;98283.28;12632302;23;20018;-53
2022/01/14 00:46:35;;;;;;;3.97;1.55;;;;;;;20.05;43.92;98286.31;12612797;23;20109;-51
2022/01/14 00:51:55;;;;;;;3.33;1.73;;;;;;;20.03;43.87;98284.97;12612267;23;20022;-52
2022/01/14 00:57:26;;;;;;;2.15;1.63;;;;;;;20.02;43.89;98275.28;12612170;23;20029;-53
2022/01/14 01:02:46;;;;;;;2.20;1.60;;;;;;;20.01;43.90;98268.22;12611396;23;20022;-51
2022/01/14 01:08:10;;;;;;;2.25;1.60;;;;;;;19.99;43.92;98260.41;12611993;23;20019;-52
2022/01/14 01:13:34;;;;;;;2.63;1.50;;;;;;;19.97;43.93;98265.31;12611653;23;20024;-52
2022/01/14 01:18:54;;;;;;;2.30;1.50;;;;;;;19.95;43.97;98262.09;12611288;23;20026;-52
2022/01/14 01:24:15;;;;;;;2.30;1.42;;;;;;;19.94;43.77;98263.19;12611780;23;20018;-52
2022/01/14 01:34:58;;;;;;;2.17;1.58;;;;;;;19.90;43.87;98254.84;12611471;23;20018;-53
2022/01/14 01:40:19;;;;;;;2.67;1.45;;;;;;;19.89;43.83;98241.63;12611222;23;20497;-52
2022/01/14 01:45:40;;;;;;;2.92;1.63;;;;;;;19.87;43.72;98233.00;12611325;23;20093;-52
2022/01/14 01:50:59;;;;;;;1.92;1.73;;;;;;;19.85;43.77;98222.47;12611163;23;20408;-52
2022/01/14 01:56:19;;;;;;;3.15;1.60;;;;;;;19.83;43.81;98223.84;12630562;23;20026;-52
2022/01/14 02:01:39;;;;;;;2.00;1.40;;;;;;;19.82;43.75;98220.34;12610826;23;20439;-55
2022/01/14 02:06:59;;;;;;;1.80;1.30;;;;;;;19.79;43.81;98207.41;12630353;23;20018;-51
2022/01/14 02:12:19;;;;;;;2.42;1.58;;;;;;;19.77;43.70;98197.97;12630081;23;20141;-51
2022/01/14 02:23:17;;;;;;;1.77;1.40;;;;;;;19.75;43.67;98176.63;12610268;23;20018;-52
2022/01/14 02:28:38;;;;;;;2.30;1.40;;;;;;;19.73;43.57;98174.22;12629749;23;20028;-52
2022/01/14 02:33:57;;;;;;;1.67;1.25;;;;;;;19.71;43.63;98162.06;12629800;23;20026;-54
2022/01/14 02:39:17;;;;;;;2.22;1.55;;;;;;;19.71;43.58;98156.66;12629757;23;20040;-52
2022/01/14 02:44:37;;;;;;;2.80;1.48;;;;;;;19.69;43.56;98142.63;12588346;23;20046;-52
2022/01/14 02:49:57;;;;;;;2.03;1.60;;;;;;;19.67;43.53;98140.22;12609837;23;20018;-52
2022/01/14 02:55:19;;;;;;;1.63;1.40;;;;;;;19.65;43.58;98139.69;12629625;23;20015;-51
2022/01/14 03:00:39;;;;;;;2.60;1.45;;;;;;;19.65;43.54;98147.00;12629177;23;20014;-53
2022/01/14 03:06:00;;;;;;;1.65;1.35;;;;;;;19.63;43.58;98139.19;12629531;23;20080;-53
2022/01/14 03:11:29;;;;;;;2.08;1.20;;;;;;;19.61;43.45;98135.19;12607472;23;20018;-52
2022/01/14 03:16:54;;;;;;;1.52;1.25;;;;;;;19.61;43.43;98154.09;12609443;23;20029;-52
2022/01/14 03:22:25;;;;;;;1.42;1.00;;;;;;;19.58;43.52;98138.44;12609763;23;20351;-52
2022/01/14 03:27:44;;;;;;;1.20;1.10;;;;;;;19.56;43.39;98144.97;12608885;23;20044;-55
2022/01/14 03:33:03;;;;;;;2.50;1.42;;;;;;;19.55;43.44;98137.94;12629067;23;20014;-51
2022/01/14 03:38:23;;;;;;;1.30;1.20;;;;;;;19.53;43.42;98136.63;12609243;23;20415;-54
2022/01/14 03:43:42;;;;;;;1.20;1.10;;;;;;;19.50;43.48;98151.53;12609463;23;20018;-53
2022/01/14 03:49:02;;;;;;;1.17;0.90;;;;;;;19.49;43.41;98143.72;12609328;23;20015;-52
2022/01/14 03:54:22;;;;;;;1.35;1.08;;;;;;;19.47;43.56;98143.22;12609545;23;20022;-52
2022/01/14 03:59:41;;;;;;;1.40;1.20;;;;;;;19.47;43.34;98138.59;12609185;23;20443;-53
2022/01/14 04:05:01;;;;;;;1.95;1.20;;;;;;;19.45;43.42;98146.19;12609389;23;20022;-52
2022/01/14 04:10:22;;;;;;;1.88;1.30;;;;;;;19.43;43.39;98144.88;12628769;23;20023;-55
2022/01/14 04:15:43;;;;;;;1.33;1.10;;;;;;;19.42;43.34;98151.38;12608400;23;20028;-51
2022/01/14 04:21:03;;;;;;;1.40;1.20;;;;;;;19.41;43.48;98150.56;12608230;23;20072;-51
2022/01/14 04:26:22;;;;;;;1.20;1.10;;;;;;;19.40;43.49;98140.84;12609185;23;20382;-51
2022/01/14 04:31:42;;;;;;;1.40;1.30;;;;;;;19.38;43.25;98144.94;12628791;23;20454;-55
2022/01/14 04:37:01;;;;;;;2.05;1.25;;;;;;;19.36;43.38;98139.81;12608368;23;20022;-51
2022/01/14 04:42:21;;;;;;;1.65;1.23;;;;;;;19.34;43.27;98134.69;12612034;23;20467;-51
2022/01/14 04:47:46;;;;;;;1.20;1.10;;;;;;;19.33;43.39;98129.59;12612476;23;20443;-52
2022/01/14 04:53:09;;;;;;;1.40;1.27;;;;;;;19.31;43.27;98116.38;12611958;23;20029;-51
2022/01/14 04:58:29;;;;;;;1.55;1.20;;;;;;;19.29;43.42;98121.28;12612131;23;20450;-52
2022/01/14 05:03:48;;;;;;;1.30;1.00;;;;;;;19.29;43.41;98109.66;12612127;23;20019;-52
2022/01/14 05:09:18;;;;;;;1.33;1.08;;;;;;;19.26;43.25;98119.13;12610837;23;20046;-54
2022/01/14 05:14:37;;;;;;;1.20;1.00;;;;;;;19.26;43.37;98118.34;12612089;23;20018;-53
2022/01/14 05:19:58;;;;;;;1.00;0.90;;;;;;;19.24;43.63;98102.41;12610643;23;20023;-51
2022/01/14 05:25:17;;;;;;;1.25;1.00;;;;;;;19.24;43.63;98104.31;12626749;23;20020;-53
2022/01/14 05:30:37;;;;;;;1.73;1.00;;;;;;;19.25;43.49;98117.53;12611261;23;20082;-51
2022/01/14 05:35:56;;;;;;;1.00;0.90;;;;;;;19.25;43.69;98119.41;12610351;23;20514;-52
2022/01/14 05:41:18;;;;;;;2.10;1.10;;;;;;;19.26;43.66;98105.63;12610917;23;20030;-54
2022/01/14 05:46:41;;;;;;;1.08;0.90;;;;;;;19.28;43.70;98099.94;12609986;23;20029;-53
2022/01/14 05:52:00;;;;;;;1.65;0.93;;;;;;;19.30;43.65;98095.84;12629070;23;20026;-53
2022/01/14 05:57:20;;;;;;;0.90;0.90;;;;;;;19.31;43.89;98102.88;12630308;23;20022;-55
2022/01/14 06:02:40;;;;;;;1.00;1.00;;;;;;;19.34;44.13;98104.19;12629986;23;20021;-53
2022/01/14 06:08:00;;;;;;;1.83;0.93;;;;;;;19.36;43.96;98097.38;12630500;23;20022;-54
2022/01/14 06:13:19;;;;;;;1.17;0.90;;;;;;;19.41;44.21;98098.44;12609412;23;20018;-53
2022/01/14 06:18:38;;;;;;;1.50;0.98;;;;;;;19.42;44.11;98098.13;12609425;23;20471;-55
2022/01/14 06:23:57;;;;;;;3.40;1.55;;;;;;;19.45;43.22;98102.94;12630566;23;20021;-55
2022/01/14 06:29:17;;;;;;;5.38;2.08;;;;;;;19.48;43.77;98105.09;12611373;23;20014;-57
2022/01/14 06:34:36;;;;;;;7.03;2.20;;;;;;;19.51;43.91;98098.28;12608091;23;20466;-57
2022/01/14 06:39:56;;;;;;;4.15;1.83;;;;;;;19.52;43.90;98100.69;12608742;23;20024;-57
2022/01/14 06:45:16;;;;;;;8.20;2.22;;;;;;;19.56;44.10;98099.03;12609275;23;20022;-53
2022/01/14 06:50:36;;;;;;;4.75;2.20;;;;;;;19.58;44.12;98090.59;12611581;23;20034;-57
2022/01/14 06:55:55;;;;;;;7.05;2.58;;;;;;;19.62;44.10;98085.41;12612936;23;20097;-53
2022/01/14 07:01:15;;;;;;;5.78;2.17;;;;;;;19.64;44.14;98091.31;12611703;23;20022;-57
2022/01/14 07:06:34;;;;;;;3.25;1.70;;;;;;;19.66;44.07;98095.38;12631157;23;20073;-56
2022/01/14 07:11:57;;;;;;;5.38;2.03;;;;;;;19.67;44.01;98090.75;12609972;23;20020;-56
2022/01/14 07:17:16;;;;;;;4.38;2.30;;;;;;;19.69;43.57;98088.56;12610859;23;20037;-56
2022/01/14 07:22:36;;;;;;;4.38;2.30;;;;;;;19.70;43.49;98095.59;12610918;23;20037;-56
2022/01/14 07:27:57;;;;;;;4.57;2.10;;;;;;;19.70;43.44;98092.88;12630606;23;20029;-56
2022/01/14 07:33:17;;;;;;;3.78;2.03;;;;;;;19.70;43.40;98095.59;12612346;23;20072;-56
2022/01/14 07:38:36;;;;;;;4.85;2.08;;;;;;;19.71;43.36;98089.06;12611579;23;20026;-55
2022/01/14 07:43:55;;;;;;;4.20;1.90;;;;;;;19.72;43.44;98083.41;12611045;23;20022;-52
2022/01/14 07:49:15;;;;;;;6.07;1.83;;;;;;;19.73;43.31;98095.00;12610159;23;20542;-54
2022/01/14 07:54:34;;;;;;;3.67;1.70;;;;;;;19.73;43.08;98087.69;12610155;23;20037;-56
2022/01/14 07:59:53;;;;;;;3.60;1.67;;;;;;;19.71;43.03;98070.97;12630646;23;20095;-53
2022/01/14 08:05:15;;;;;;;4.75;1.73;;;;;;;19.73;43.29;98068.78;12609600;23;20112;-53
2022/01/14 08:10:35;;;;;;;3.78;1.83;;;;;;;19.74;43.49;98058.78;12627748;23;20018;-51
2022/01/14 08:15:55;;;;;;;5.60;1.92;;;;;;;19.76;43.64;98056.59;12611013;23;20074;-52
2022/01/14 08:21:15;;;;;;;4.30;1.88;;;;;;;19.75;43.64;98058.47;12611016;23;20022;-51
2022/01/14 08:26:35;;;;;;;4.70;1.85;;;;;;;19.76;43.76;98051.19;12631602;23;20023;-52
2022/01/14 08:31:55;;;;;;;4.18;2.53;;;;;;;19.70;39.87;98041.50;12612363;23;20075;-54
2022/01/14 08:37:15;;;;;;;3.80;2.10;;;;;;;19.69;42.48;98053.41;12612335;23;20540;-53
2022/01/14 08:42:36;;;;;;;2.70;1.80;;;;;;;19.68;41.92;98041.81;12630616;23;20022;-52
2022/01/14 08:47:55;;;;;;;3.15;1.83;;;;;;;19.69;41.83;98037.97;12610197;23;20022;-53
2022/01/14 08:53:15;;;;;;;2.47;1.70;;;;;;;19.70;42.03;98041.50;12609331;23;20052;-54
2022/01/14 08:58:35;;;;;;;2.45;1.65;;;;;;;19.71;41.88;98026.88;12628080;23;20022;-55
2022/01/14 09:03:54;;;;;;;1.98;1.73;;;;;;;19.71;41.96;98032.28;12609104;23;20022;-56
2022/01/14 09:09:14;;;;;;;2.85;1.75;;;;;;;19.70;42.03;98023.38;12612268;23;20049;-52
2022/01/14 09:14:33;;;;;;;2.65;1.60;;;;;;;19.69;42.10;98007.44;12612336;23;20324;-52
2022/01/14 09:19:53;;;;;;;2.83;1.70;;;;;;;19.69;41.97;98004.75;12611241;23;20019;-55
2022/01/14 09:25:13;;;;;;;1.67;1.45;;;;;;;19.68;42.19;98005.81;12631685;23;20018;-54
2022/01/14 09:30:34;;;;;;;3.80;1.40;;;;;;;19.67;41.96;98005.03;12611212;23;20025;-52
2022/01/14 09:35:53;;;;;;;2.13;1.50;;;;;;;19.67;42.11;98009.66;12611983;23;20019;-55
2022/01/14 09:41:14;;;;;;;3.50;1.60;;;;;;;19.67;42.13;98001.53;12611887;23;20015;-54
2022/01/14 09:46:33;;;;;;;1.83;1.48;;;;;;;19.65;42.19;98001.81;12611664;23;20451;-54
2022/01/14 09:51:53;;;;;;;2.50;1.60;;;;;;;19.65;42.25;97999.13;12610976;23;20018;-53
2022/01/14 09:57:17;;;;;;;1.83;1.40;;;;;;;19.64;42.12;97994.00;12611419;23;20046;-53
2022/01/14 10:02:40;;;;;;;1.77;1.30;;;;;;;19.63;42.27;97993.22;12611356;23;20023;-55
2022/01/14 10:08:18;;;;;;;2.35;1.90;;;;;;;19.49;34.18;97974.25;12609626;23;20094;-54
2022/01/14 10:13:38;;;;;;;2.28;2.08;;;;;;;19.30;33.65;97957.25;12610162;23;20019;-52
2022/01/14 10:18:57;;;;;;;1.85;1.60;;;;;;;19.31;37.42;97946.16;12606385;23;20462;-55
2022/01/14 10:24:18;;;;;;;1.70;1.38;;;;;;;19.36;37.48;97948.75;12610604;23;20439;-55
2022/01/14 10:29:39;;;;;;;1.95;1.60;;;;;;;19.40;37.84;97930.06;12609097;23;20018;-52
2022/01/14 10:35:04;;;;;;;1.63;1.40;;;;;;;19.43;37.89;97924.09;12630035;23;20025;-53
2022/01/14 10:40:25;;;;;;;4.22;1.35;;;;;;;19.43;38.22;97913.28;12629360;23;20018;-53
2022/01/14 10:45:45;;;;;;;2.75;1.45;;;;;;;19.43;38.46;97918.69;12609580;23;20343;-53
2022/01/14 10:51:07;;;;;;;3.22;1.45;;;;;;;19.43;38.49;97909.78;12628717;23;20328;-53
2022/01/14 10:56:27;;;;;;;2.67;1.52;;;;;;;19.41;38.45;97891.16;12606901;23;20018;-55
2022/01/14 11:01:48;;;;;;;2.92;1.42;;;;;;;19.41;38.55;97909.28;12609509;23;20014;-54
2022/01/14 12:14:37;;;;;;;4.05;3.33;;;;;;;19.20;28.71;97927.69;12511243;22;1306285;-53
2022/01/14 12:20:09;;;;;;;3.92;3.28;;;;;;;19.20;28.71;97927.69;12995678;22;20071;-53
2022/01/14 12:25:43;;;;;;;4.03;3.63;;;;;;;18.70;27.56;97912.72;12996156;22;20011;-55
2022/01/14 12:31:03;;;;;;;4.30;3.05;;;;;;;18.69;30.38;97900.31;12995473;22;20015;-52
2022/01/14 12:36:23;;;;;;;3.90;2.92;;;;;;;18.78;32.35;97903.19;12987660;22;20019;-52
2022/01/14 12:41:43;;;;;;;2.97;2.72;;;;;;;18.86;33.11;97890.97;12993852;22;20342;-51
2022/01/14 12:47:08;;;;;;;5.70;5.10;;;;;;;18.90;36.24;97902.78;12996705;22;20011;-54
2022/01/14 12:52:38;;;;;;;7.07;4.10;;;;;;;18.92;38.46;97900.56;12996971;22;20076;-53
2022/01/14 12:57:57;;;;;;;3.95;3.40;;;;;;;18.94;38.41;97901.09;12987874;22;20024;-54
2022/01/14 13:03:17;;;;;;;4.18;3.25;;;;;;;18.95;38.19;97903.50;12982341;22;20022;-54
2022/01/14 13:08:37;;;;;;;3.50;3.15;;;;;;;18.96;38.30;97902.38;13000392;22;20069;-51
2022/01/14 13:13:58;;;;;;;3.67;2.88;;;;;;;18.96;38.34;97907.00;13016313;22;20389;-54
2022/01/14 13:19:24;;;;;;;2.88;2.50;;;;;;;18.96;38.58;97898.91;13045476;22;20088;-53
2022/01/14 13:24:47;;;;;;;4.03;2.70;;;;;;;18.94;38.44;97912.69;13045933;22;20018;-51
2022/01/14 13:30:15;;;;;;;4.32;2.28;;;;;;;18.93;38.44;97896.78;13044831;22;20016;-53
2022/01/14 13:35:40;;;;;;;3.90;2.55;;;;;;;18.91;37.00;97891.66;13044810;22;20023;-51
2022/01/14 13:41:00;;;;;;;4.57;3.80;;;;;;;18.64;31.20;97899.59;13044957;22;20023;-53
2022/01/14 13:46:20;;;;;;;4.30;3.47;;;;;;;18.38;29.45;97900.75;13045189;22;20012;-52
2022/01/14 13:51:39;;;;;;;3.90;3.50;;;;;;;18.17;28.41;97904.78;13066309;22;20022;-53
2022/01/14 13:57:24;;;;;;;3.70;3.20;;;;;;;17.97;26.83;97903.09;12513620;22;20045;-52
2022/01/14 14:19:44;;;;;;;6.32;3.92;;;;;;;17.92;31.00;97930.94;13067096;22;20076;-54
2022/01/14 14:25:16;;;;;;;4.88;3.22;;;;;;;18.08;32.09;97917.28;13047056;22;20038;-54
2022/01/14 14:30:39;;;;;;;4.75;3.25;;;;;;;18.15;32.48;97913.16;13046669;22;20537;-54
2022/01/14 14:35:59;;;;;;;7.63;3.67;;;;;;;18.20;32.75;97909.59;13043882;22;20448;-54
2022/01/14 14:41:19;;;;;;;4.60;3.60;;;;;;;18.19;30.90;97905.31;13045752;22;20041;-53
2022/01/14 14:46:41;;;;;;;8.80;4.57;;;;;;;18.18;32.56;97917.16;13044816;22;20030;-54
2022/01/14 14:52:02;;;;;;;7.53;3.20;;;;;;;18.21;33.41;97927.41;13044769;22;20489;-53
2022/01/14 14:57:21;;;;;;;5.28;3.10;;;;;;;18.23;34.60;97938.69;13045924;22;20019;-53
2022/01/14 15:02:43;;;;;;;5.47;3.40;;;;;;;18.25;34.82;97933.81;13045078;22;20026;-52
2022/01/14 15:08:03;;;;;;;5.22;3.50;;;;;;;18.27;35.40;97928.94;13041704;22;20362;-54
2022/01/14 15:13:24;;;;;;;5.18;3.03;;;;;;;18.30;35.60;97920.25;13042789;22;20020;-53
2022/01/14 15:18:43;;;;;;;4.32;3.17;;;;;;;18.33;35.88;97922.38;13065188;22;20011;-52
2022/01/14 15:24:03;;;;;;;5.32;3.03;;;;;;;18.37;36.04;97918.00;13046133;22;20018;-53
2022/01/14 15:29:22;;;;;;;6.05;2.90;;;;;;;18.41;36.30;97920.94;13045353;22;20015;-53
2022/01/14 15:34:42;;;;;;;4.30;2.83;;;;;;;18.43;36.55;97928.75;13044350;22;20011;-52
2022/01/14 15:40:05;;;;;;;3.38;2.55;;;;;;;18.47;36.87;97935.97;13043639;22;20030;-53
2022/01/14 15:45:25;;;;;;;4.68;2.67;;;;;;;18.52;37.37;97932.41;13041615;22;20292;-53
2022/01/14 15:50:44;;;;;;;3.63;2.60;;;;;;;18.55;37.48;97926.44;13066399;22;20660;-53
2022/01/14 15:56:04;;;;;;;4.88;2.70;;;;;;;18.60;37.77;97922.84;13066327;22;20015;-54
2022/01/14 16:01:23;;;;;;;5.75;2.53;;;;;;;18.64;37.90;97913.91;13045475;22;20038;-53
2022/01/14 16:06:42;;;;;;;4.93;2.65;;;;;;;18.69;38.17;97913.03;13065084;22;20022;-54
2022/01/14 16:12:02;;;;;;;4.35;2.88;;;;;;;18.73;38.17;97922.94;13044815;22;20026;-54
2022/01/14 16:17:22;;;;;;;5.18;2.53;;;;;;;18.76;38.28;97922.38;13065022;22;20099;-53
2022/01/14 16:22:42;;;;;;;3.97;2.53;;;;;;;18.80;38.44;97921.78;13065818;22;20096;-54
2022/01/14 16:28:01;;;;;;;7.20;2.40;;;;;;;18.83;38.57;97932.81;13044422;22;20428;-53
2022/01/14 16:33:21;;;;;;;4.05;2.13;;;;;;;18.89;39.29;97931.66;13068090;22;20022;-52
2022/01/14 16:38:40;;;;;;;4.20;2.20;;;;;;;18.93;39.32;97946.19;13048411;22;20026;-53
2022/01/14 16:44:00;;;;;;;3.35;2.38;;;;;;;18.98;39.63;97953.41;13069750;22;20023;-53
2022/01/14 16:49:19;;;;;;;4.60;2.15;;;;;;;19.01;39.58;97954.72;13048257;22;20026;-53
2022/01/14 16:54:40;;;;;;;6.13;2.33;;;;;;;19.06;39.47;97957.34;13069219;22;20082;-52
2022/01/14 16:59:59;;;;;;;10.82;2.55;;;;;;;19.11;39.76;97954.56;13048131;22;20015;-53
2022/01/14 17:05:19;;;;;;;8.55;2.30;;;;;;;19.17;40.13;97975.81;13069277;22;20068;-52
2022/01/14 17:10:39;;;;;;;10.43;2.47;;;;;;;19.23;40.53;97956.81;13047142;22;20026;-52
2022/01/14 17:16:00;;;;;;;5.60;2.20;;;;;;;19.29;40.66;97961.06;13046619;22;20015;-53
2022/01/14 17:21:20;;;;;;;7.82;2.40;;;;;;;19.34;40.97;97971.78;13067178;22;20016;-52
2022/01/14 17:26:40;;;;;;;6.07;2.20;;;;;;;19.39;40.96;97971.72;13046895;22;20018;-55
2022/01/14 17:31:59;;;;;;;5.75;2.17;;;;;;;19.43;40.74;97975.44;13048057;22;20611;-53
2022/01/14 17:37:19;;;;;;;4.90;2.20;;;;;;;19.46;40.52;97977.53;13046367;22;20082;-53
2022/01/14 17:42:39;;;;;;;7.13;2.78;;;;;;;19.52;41.53;98000.69;13046505;22;20082;-54
2022/01/14 17:47:58;;;;;;;3.60;2.25;;;;;;;19.56;41.46;97996.31;13067887;22;20025;-54
2022/01/14 17:53:20;;;;;;;4.82;2.05;;;;;;;19.63;41.42;98014.03;13068354;22;20040;-52
2022/01/14 17:58:40;;;;;;;5.57;1.73;;;;;;;19.69;41.43;98004.75;13046059;22;20022;-52
2022/01/14 18:03:59;;;;;;;5.68;2.10;;;;;;;19.72;41.44;98018.50;13064031;22;20026;-53
2022/01/14 18:09:22;;;;;;;4.65;2.55;;;;;;;19.77;40.87;98020.31;13045847;22;20026;-54
2022/01/14 18:14:42;;;;;;;4.80;2.80;;;;;;;19.78;40.96;98027.34;13067166;22;20082;-54
2022/01/14 18:20:01;;;;;;;7.20;2.92;;;;;;;19.82;41.86;98035.69;13066195;22;20029;-53
2022/01/14 18:25:22;;;;;;;6.28;2.50;;;;;;;19.85;41.92;98037.78;13045953;22;20090;-52
2022/01/14 18:30:41;;;;;;;3.35;2.15;;;;;;;19.88;41.89;98048.00;13066192;22;20025;-53
2022/01/14 18:36:02;;;;;;;5.75;2.10;;;;;;;19.89;41.77;98038.78;13044030;22;20544;-55
2022/01/14 18:41:21;;;;;;;3.42;2.15;;;;;;;19.92;41.57;98028.19;13020434;22;20092;-55
2022/01/14 18:46:42;;;;;;;5.78;2.20;;;;;;;19.94;41.55;98042.22;13044890;22;20019;-55
2022/01/14 18:52:03;;;;;;;4.28;2.15;;;;;;;19.97;41.55;98046.22;13044836;22;20019;-56
2022/01/14 18:57:23;;;;;;;2.10;1.80;;;;;;;19.98;41.39;98053.25;13065908;22;20016;-54
2022/01/14 19:02:42;;;;;;;3.78;2.10;;;;;;;20.00;41.60;98061.84;13043598;22;20506;-58
2022/01/14 19:08:04;;;;;;;4.05;1.98;;;;;;;20.01;41.48;98071.56;13044082;22;20019;-55
2022/01/14 19:13:24;;;;;;;4.57;2.40;;;;;;;20.03;41.46;98074.81;13045139;22;20016;-57
2022/01/14 19:18:44;;;;;;;4.90;2.50;;;;;;;20.05;41.53;98085.31;13043168;22;20019;-55
2022/01/14 19:24:04;;;;;;;2.45;1.88;;;;;;;20.04;41.57;98072.91;13044044;22;20018;-55
2022/01/14 19:29:26;;;;;;;2.50;1.83;;;;;;;20.06;41.62;98068.78;13042719;22;20015;-56
2022/01/14 19:34:46;;;;;;;3.58;1.50;;;;;;;20.07;41.68;98062.28;13062729;22;20094;-54
2022/01/14 19:40:07;;;;;;;3.53;2.08;;;;;;;20.08;41.98;98058.47;13043094;22;20020;-55
2022/01/14 19:45:27;;;;;;;4.07;2.10;;;;;;;20.08;42.06;98066.59;13043648;22;20050;-57
2022/01/14 19:50:47;;;;;;;2.67;2.08;;;;;;;20.10;42.02;98060.88;13043851;22;20021;-53
2022/01/14 19:56:07;;;;;;;5.82;2.67;;;;;;;20.11;42.16;98051.66;13064766;22;20137;-53
2022/01/14 20:01:27;;;;;;;7.18;2.40;;;;;;;20.10;42.10;98050.06;13064124;22;20011;-52
2022/01/14 20:06:46;;;;;;;5.53;2.65;;;;;;;20.09;42.22;98057.38;13044229;22;20015;-53
2022/01/14 20:12:06;;;;;;;6.85;2.20;;;;;;;20.09;42.10;98059.25;13047364;22;20027;-51
2022/01/14 20:17:26;;;;;;;4.80;2.50;;;;;;;20.08;41.99;98058.47;13068372;22;20015;-52
2022/01/14 20:22:45;;;;;;;4.45;2.33;;;;;;;20.08;42.00;98054.97;13047656;22;20015;-52
2022/01/14 20:28:05;;;;;;;6.35;2.65;;;;;;;20.08;42.00;98054.97;13048667;22;20524;-55
2022/01/14 20:33:26;;;;;;;5.72;2.90;;;;;;;-146.19;100.00;65364.44;13046671;22;20019;-54
2022/01/14 20:38:46;;;;;;;6.72;3.22;;;;;;;-146.19;100.00;65364.44;13020184;22;20141;-54
2022/01/14 20:44:06;;;;;;;4.82;2.70;;;;;;;-146.19;100.00;65364.44;13046450;22;20039;-54
2022/01/14 20:49:25;;;;;;;6.68;3.00;;;;;;;-146.19;100.00;65364.44;13047490;22;20567;-52
2022/01/14 20:54:46;;;;;;;4.13;2.50;;;;;;;-146.19;100.00;65364.44;13046503;22;20011;-53
2022/01/14 21:00:09;;;;;;;4.75;2.95;;;;;;;-146.19;100.00;65364.44;13068757;22;20015;-56
2022/01/14 21:05:30;;;;;;;6.00;2.88;;;;;;;-146.19;100.00;65364.44;13046879;22;20334;-54
2022/01/14 21:10:50;;;;;;;5.65;2.65;;;;;;;-146.19;100.00;65364.44;13048310;22;20343;-53
2022/01/14 21:16:10;;;;;;;4.38;2.42;;;;;;;-146.19;100.00;65364.44;13047662;22;20082;-53
2022/01/14 21:21:30;;;;;;;5.18;2.63;;;;;;;-146.19;100.00;65364.44;13044692;22;20089;-54
2022/01/14 21:26:49;;;;;;;3.75;2.15;;;;;;;-146.19;100.00;65364.44;13065486;22;20015;-54
2022/01/14 21:32:09;;;;;;;3.78;2.30;;;;;;;-146.19;100.00;65364.44;13047456;22;20023;-54
2022/01/14 21:37:30;;;;;;;5.55;2.13;;;;;;;-146.19;100.00;65364.44;13046811;22;20023;-54
2022/01/14 21:42:50;;;;;;;2.80;1.88;;;;;;;-146.19;100.00;65364.44;13045118;22;20097;-54
2022/01/14 21:48:10;;;;;;;4.60;2.00;;;;;;;-146.19;100.00;65364.44;13045612;22;20015;-53
2022/01/14 21:53:29;;;;;;;3.35;2.03;;;;;;;20.08;42.00;98054.97;13045158;22;20388;-54
2022/01/14 21:58:49;;;;;;;6.70;2.05;;;;;;;20.09;44.36;98037.63;13066169;22;20015;-54
2022/01/14 22:04:09;;;;;;;4.47;2.30;;;;;;;20.07;44.35;98026.31;13064632;22;20023;-54
2022/01/14 22:09:30;;;;;;;4.40;1.92;;;;;;;20.06;44.50;98035.53;13065742;22;20363;-54
2022/01/14 22:15:05;;;;;;;3.60;2.17;;;;;;;20.05;44.28;98042.84;13044283;22;20470;-54
2022/01/14 22:20:25;;;;;;;4.28;2.17;;;;;;;20.03;44.42;98045.06;13065641;22;20098;-54
2022/01/14 22:25:46;;;;;;;4.00;1.80;;;;;;;20.03;44.57;98044.22;13065469;22;20026;-54
2022/01/14 22:31:05;;;;;;;3.55;2.15;;;;;;;20.01;44.36;98049.94;13043935;22;20654;-54
2022/01/14 22:36:25;;;;;;;5.85;2.55;;;;;;;20.00;44.57;98053.75;13045526;22;20015;-54
2022/01/14 22:41:45;;;;;;;4.22;2.10;;;;;;;19.99;44.49;98033.19;13067573;22;20443;-54
2022/01/14 22:47:05;;;;;;;4.53;2.20;;;;;;;19.97;44.40;98042.72;13045520;22;20015;-54
2022/01/14 22:52:25;;;;;;;3.72;2.03;;;;;;;19.97;44.38;98048.91;13046540;22;20015;-54
2022/01/14 22:57:44;;;;;;;4.20;1.90;;;;;;;19.95;44.34;98057.34;13046185;22;20015;-54
2022/01/14 23:03:04;;;;;;;4.35;1.95;;;;;;;19.94;44.36;98042.22;13046349;22;20029;-54
2022/01/14 23:08:24;;;;;;;2.83;2.00;;;;;;;19.92;44.28;98038.19;13045306;22;20642;-54
2022/01/14 23:13:43;;;;;;;3.35;1.95;;;;;;;19.90;44.31;98046.59;13066948;22;20021;-54
2022/01/14 23:19:04;;;;;;;4.03;2.10;;;;;;;19.91;44.24;98053.59;13066527;22;20090;-54
2022/01/14 23:24:23;;;;;;;3.15;1.90;;;;;;;19.89;44.25;98050.41;13045874;22;20359;-54
2022/01/14 23:29:42;;;;;;;4.32;2.00;;;;;;;19.88;44.26;98051.50;13045914;22;20015;-54
2022/01/14 23:35:03;;;;;;;2.95;1.77;;;;;;;19.86;44.08;98045.59;13066506;22;20015;-54
2022/01/14 23:40:22;;;;;;;3.33;1.75;;;;;;;19.85;44.08;98054.78;13022693;22;20312;-55
2022/01/14 23:51:14;;;;;;;3.08;2.17;;;;;;;19.83;44.10;98056.19;13066519;22;20015;-54
2022/01/14 23:56:34;;;;;;;5.70;1.85;;;;;;;19.81;44.00;98042.97;13044928;22;20125;-55
